Time;durP1;ratioP1;P1;durP2;ratioP2;P2;SDS_P1;SDS_P2;PMS_P1;PMS_P2;Temp;Humidity;BMP_temperature;BMP_pressure;BME280_temperature;BME280_humidity;BME280_pressure;Samples;Min_cycle;Max_cycle;Signal;HPM_P1;HPM_P2
2022/06/14 00:03:08;;;;;;;;;;;20.30;72.00;;;19.59;66.95;96044.94;4079673;34;20007;-87
2022/06/14 00:05:37;;;;;;;;;;;20.30;72.00;;;19.57;67.20;96045.25;4079418;34;20214;-87
2022/06/14 00:08:06;;;;;;;;;;;20.30;72.00;;;19.55;67.14;96046.72;4079529;34;19904;-87
2022/06/14 00:10:35;;;;;;;;;;;20.20;71.80;;;19.55;66.96;96041.19;4078840;34;19911;-87
2022/06/14 00:13:04;;;;;;;;;;;20.30;71.90;;;19.56;66.76;96045.59;4101436;34;20120;-87
2022/06/14 00:15:34;;;;;;;;;;;20.20;71.70;;;19.56;66.72;96049.16;4079596;34;19904;-87
2022/06/14 00:18:03;;;;;;;;;;;20.30;71.80;;;19.56;66.97;96032.50;4124673;34;19904;-87
2022/06/14 00:20:32;;;;;;;;;;;20.20;71.80;;;19.55;66.66;96036.47;4078734;34;20242;-86
2022/06/14 00:23:01;;;;;;;;;;;20.30;71.80;;;19.55;66.97;96035.63;4079398;34;20119;-87
2022/06/14 00:25:33;;;;;;;;;;;20.20;71.70;;;19.52;66.68;96031.56;4101163;34;20039;-87
2022/06/14 00:28:02;;;;;;;;;;;20.20;71.80;;;19.53;66.78;96033.19;4101315;34;19904;-87
2022/06/14 00:30:31;;;;;;;;;;;20.20;71.70;;;19.54;66.74;96042.31;4078855;34;20476;-87
2022/06/14 00:33:01;;;;;;;;;;;20.20;71.70;;;19.53;66.86;96037.91;4100594;34;20242;-87
2022/06/14 00:35:30;;;;;;;;;;;20.20;71.70;;;19.53;66.79;96038.75;4101266;34;19970;-87
2022/06/14 00:38:00;;;;;;;;;;;20.20;71.70;;;19.52;66.54;96039.06;4101016;34;20126;-87
2022/06/14 00:40:31;;;;;;;;;;;20.20;71.60;;;19.52;66.65;96042.66;4078456;34;19905;-87
2022/06/14 00:43:02;;;;;;;;;;;20.20;71.60;;;19.52;66.83;96045.44;4101100;34;19911;-87
2022/06/14 00:46:18;;;;;;;;;;;20.20;71.60;;;19.51;66.72;96041.03;4100646;34;20043;-87
2022/06/14 00:48:56;;;;;;;;;;;20.20;71.50;;;19.52;66.67;96036.28;4035055;34;19911;-87
2022/06/14 00:51:27;;;;;;;;;;;20.20;71.50;;;19.51;66.65;96035.47;4100709;34;19904;-87
2022/06/14 00:54:02;;;;;;;;;;;20.20;71.50;;;19.51;66.95;96041.03;4101010;34;19911;-87
2022/06/14 00:56:35;;;;;;;;;;;20.20;71.40;;;19.49;66.54;96035.00;4100702;34;20165;-87
2022/06/14 00:59:11;;;;;;;;;;;20.20;71.40;;;19.49;66.46;96032.22;4078835;34;19929;-87
2022/06/14 01:01:43;;;;;;;;;;;20.20;71.50;;;19.49;66.62;96020.31;4100605;34;19912;-86
2022/06/14 01:04:16;;;;;;;;;;;20.20;71.40;;;19.49;66.39;96029.44;4078875;34;19904;-87
2022/06/14 01:06:52;;;;;;;;;;;20.20;71.50;;;19.47;66.52;96027.00;4078513;34;19904;-87
2022/06/14 01:09:23;;;;;;;;;;;20.10;71.40;;;19.47;66.45;96029.78;4100696;34;19998;-87
2022/06/14 01:11:54;;;;;;;;;;;20.10;71.50;;;19.48;66.20;96027.81;4078328;34;20163;-87
2022/06/14 01:14:27;;;;;;;;;;;20.10;71.40;;;19.45;66.52;96020.97;4101039;34;19904;-87
2022/06/14 01:16:56;;;;;;;;;;;20.20;71.40;;;19.46;66.46;96024.56;4100674;34;19911;-87
2022/06/14 01:19:26;;;;;;;;;;;20.20;71.30;;;19.46;66.58;96022.59;4078781;34;20004;-87
2022/06/14 01:22:23;;;;;;;;;;;20.20;71.30;;;19.44;66.30;96027.66;4078281;34;19911;-87
2022/06/14 01:24:51;;;;;;;;;;;20.10;71.30;;;19.45;66.44;96020.16;4100701;34;20282;-87
2022/06/14 01:27:21;;;;;;;;;;;20.20;71.30;;;19.45;66.41;96036.81;4123747;34;20031;-87
2022/06/14 01:29:55;;;;;;;;;;;20.10;71.30;;;19.45;66.49;96036.81;4079053;34;19911;-88
2022/06/14 01:32:25;;;;;;;;;;;20.10;72.10;;;19.43;66.55;96033.53;4100704;34;19904;-87
2022/06/14 01:34:54;;;;;;;;;;;20.20;71.30;;;19.45;66.09;96043.19;4078613;34;20255;-87
2022/06/14 01:37:25;;;;;;;;;;;20.10;71.30;;;19.43;66.17;96039.09;4100603;34;19904;-88
2022/06/14 01:39:54;;;;;;;;;;;20.10;71.30;;;19.44;66.41;96037.94;4078464;34;19904;-88
2022/06/14 01:42:26;;;;;;;;;;;20.10;71.30;;;19.42;66.31;96046.63;4123657;34;19992;-87
2022/06/14 01:45:03;;;;;;;;;;;20.10;71.30;;;19.43;66.38;96050.19;4100330;34;19911;-88
2022/06/14 01:47:37;;;;;;;;;;;20.10;71.30;;;19.41;66.06;96041.41;4078407;34;19940;-88
2022/06/14 01:53:18;;;;;;;;;;;20.10;71.20;;;19.41;66.12;96044.97;4078122;34;20090;-87
2022/06/14 01:55:50;;;;;;;;;;;20.10;71.20;;;19.40;66.00;96050.88;4100355;34;19904;-87
2022/06/14 01:58:22;;;;;;;;;;;20.10;71.20;;;19.40;66.35;96046.13;4100294;34;19911;-88
2022/06/14 02:00:53;;;;;;;;;;;20.10;71.20;;;19.41;66.34;96058.06;4077890;34;20222;-88
2022/06/14 02:06:25;;;;;;;;;;;20.10;71.20;;;19.39;66.13;96049.25;4018245;34;19911;-86
2022/06/14 02:08:56;;;;;;;;;;;20.10;71.10;;;19.39;66.27;96049.25;4078245;34;19904;-86
2022/06/14 02:11:27;;;;;;;;;;;20.10;71.00;;;19.38;66.23;96050.38;4099933;34;19919;-87
2022/06/14 02:14:00;;;;;;;;;;;20.10;71.00;;;19.38;66.07;96044.84;4100350;34;19911;-87
2022/06/14 02:16:32;;;;;;;;;;;20.10;71.00;;;19.38;66.36;96061.50;4078264;34;20046;-87
2022/06/14 02:19:04;;;;;;;;;;;20.10;71.10;;;19.40;66.38;96053.66;4078187;34;20119;-87
2022/06/14 02:21:36;;;;;;;;;;;20.10;71.10;;;19.37;66.17;96054.31;4077865;34;20237;-87
2022/06/14 02:24:11;;;;;;;;;;;20.10;71.00;;;19.36;66.25;96050.72;4100115;34;20129;-87
2022/06/14 02:26:47;;;;;;;;;;;20.10;71.00;;;19.37;66.12;96063.44;4078055;34;19915;-87
2022/06/14 02:29:19;;;;;;;;;;;20.10;71.10;;;19.35;66.18;96068.53;4122373;34;19915;-87
2022/06/14 02:31:55;;;;;;;;;;;20.10;71.00;;;19.36;66.25;96088.75;4077744;34;19904;-86
2022/06/14 02:34:28;;;;;;;;;;;20.00;70.90;;;19.36;66.31;96080.44;4100145;34;20077;-87
2022/06/14 02:37:01;;;;;;;;;;;20.00;70.80;;;19.36;66.01;96094.31;4077907;34;20260;-87
2022/06/14 02:39:34;;;;;;;;;;;20.00;70.80;;;19.36;66.12;96099.88;4100105;34;20218;-87
2022/06/14 02:42:07;;;;;;;;;;;20.00;70.80;;;19.36;65.82;96100.69;4077316;34;19904;-87
2022/06/14 02:44:41;;;;;;;;;;;20.00;70.70;;;19.36;66.27;96099.88;4078152;34;19911;-87
2022/06/14 02:47:14;;;;;;;;;;;20.00;70.90;;;19.35;66.14;96106.56;4099827;34;19912;-87
2022/06/14 02:49:46;;;;;;;;;;;20.00;70.80;;;19.32;66.03;96111.63;4078154;34;20070;-87
2022/06/14 02:52:17;;;;;;;;;;;20.00;70.80;;;19.33;66.30;96112.44;4099637;34;19971;-87
2022/06/14 02:54:50;;;;;;;;;;;20.00;70.90;;;19.35;65.79;96114.88;4077953;34;19904;-87
2022/06/14 02:57:24;;;;;;;;;;;20.00;70.80;;;19.36;66.22;96116.53;4101853;34;19904;-87
2022/06/14 02:59:55;;;;;;;;;;;20.00;70.80;;;19.35;66.10;96117.66;4079153;34;19904;-87
2022/06/14 03:02:26;;;;;;;;;;;20.00;70.80;;;19.34;65.85;96107.69;4079545;34;20394;-87
2022/06/14 03:04:59;;;;;;;;;;;20.00;70.80;;;19.35;65.78;96107.41;4102248;34;19921;-87
2022/06/14 03:07:31;;;;;;;;;;;20.00;70.80;;;19.36;65.91;96105.41;4080084;34;20146;-87
2022/06/14 03:10:06;;;;;;;;;;;20.00;70.80;;;19.34;65.83;96107.69;4101839;34;19985;-87
2022/06/14 03:12:41;;;;;;;;;;;20.00;70.80;;;19.36;65.89;96116.53;4079930;34;20103;-87
2022/06/14 03:15:15;;;;;;;;;;;20.00;70.80;;;19.36;66.11;96110.97;4080008;34;20142;-86
2022/06/14 03:17:53;;;;;;;;;;;20.00;70.80;;;19.34;65.89;96129.91;4079719;34;19904;-87
2022/06/14 03:20:37;;;;;;;;;;;20.00;70.80;;;19.36;65.99;96125.69;4079529;34;19904;-86
2022/06/14 03:23:16;;;;;;;;;;;20.00;70.80;;;19.36;66.12;96133.19;4079785;34;20121;-86
2022/06/14 03:25:50;;;;;;;;;;;20.00;70.80;;;19.37;65.86;96137.59;4079809;34;20102;-86
2022/06/14 03:28:22;;;;;;;;;;;20.00;70.80;;;19.36;65.98;96142.34;4079885;34;19960;-87
2022/06/14 03:30:54;;;;;;;;;;;20.10;71.10;;;19.36;65.95;96138.72;4079461;34;19904;-86
2022/06/14 03:33:26;;;;;;;;;;;20.00;71.00;;;19.34;66.19;96130.75;4101807;34;19964;-86
2022/06/14 03:35:55;;;;;;;;;;;20.10;71.00;;;19.38;66.01;96142.00;4079763;34;20122;-86
2022/06/14 03:38:26;;;;;;;;;;;20.00;70.80;;;19.36;65.85;96150.66;4079650;34;20116;-87
2022/06/14 03:40:57;;;;;;;;;;;20.10;70.80;;;19.39;65.92;96143.63;4101071;34;20086;-86
2022/06/14 03:43:26;;;;;;;;;;;20.10;70.70;;;19.38;65.74;96125.34;4101567;34;20029;-86
2022/06/14 03:45:59;;;;;;;;;;;20.10;70.60;;;19.42;65.70;96142.97;4079600;34;20137;-87
2022/06/14 03:48:30;;;;;;;;;;;20.10;70.50;;;19.43;65.78;96147.34;4079659;34;19990;-86
2022/06/14 03:51:11;;;;;;;;;;;20.10;70.60;;;19.44;66.00;96152.59;4101409;34;19904;-86
2022/06/14 03:54:07;;;;;;;;;;;20.20;70.80;;;19.46;66.00;96150.31;4079561;34;19911;-86
2022/06/14 03:56:46;;;;;;;;;;;20.20;71.00;;;19.47;66.15;96151.13;4079658;34;20084;-87
2022/06/14 03:59:27;;;;;;;;;;;20.10;70.80;;;19.49;66.10;96148.81;4075151;34;20020;-86
2022/06/14 04:02:00;;;;;;;;;;;20.20;70.80;;;19.50;65.92;96161.56;4073553;34;20530;-86
2022/06/14 04:04:39;;;;;;;;;;;20.20;70.80;;;19.52;66.24;96150.94;4097118;34;20007;-87
2022/06/14 04:07:17;;;;;;;;;;;20.20;70.90;;;19.53;66.15;96155.38;4053019;34;19912;-87
2022/06/14 04:09:50;;;;;;;;;;;20.20;71.00;;;19.54;65.92;96162.53;4053209;34;20216;-87
2022/06/14 04:12:26;;;;;;;;;;;20.20;71.00;;;19.57;66.47;96170.19;4053230;34;19905;-86
2022/06/14 04:15:12;;;;;;;;;;;20.30;71.30;;;19.58;66.45;96169.06;4052998;34;20018;-87
2022/06/14 04:17:46;;;;;;;;;;;20.20;71.30;;;19.60;66.40;96161.22;4074913;34;19911;-86
2022/06/14 04:20:19;;;;;;;;;;;20.30;71.30;;;19.60;66.62;96169.53;4074345;34;19992;-86
2022/06/14 04:22:54;;;;;;;;;;;20.30;71.50;;;19.61;66.84;96168.41;4074965;34;19905;-87
2022/06/14 04:25:31;;;;;;;;;;;20.30;71.60;;;19.61;66.81;96162.84;4074852;34;19904;-87
2022/06/14 04:28:10;;;;;;;;;;;20.30;71.50;;;19.65;66.80;96170.53;4074498;34;19964;-87
2022/06/14 04:30:44;;;;;;;;;;;20.30;71.60;;;19.67;66.86;96182.13;4074216;34;19905;-87
2022/06/14 04:33:16;;;;;;;;;;;20.40;71.50;;;19.69;66.66;96179.81;4074717;34;20136;-87
2022/06/14 04:35:48;;;;;;;;;;;20.40;71.50;;;19.69;66.69;96182.59;4053309;34;20024;-87
2022/06/14 04:38:20;;;;;;;;;;;20.40;72.40;;;19.70;66.59;96179.50;4052816;34;19916;-87
2022/06/14 04:40:52;;;;;;;;;;;20.40;71.50;;;19.71;66.53;96183.91;4074130;34;20171;-88
2022/06/14 04:43:25;;;;;;;;;;;20.50;71.50;;;19.76;66.45;96189.25;4052707;34;19905;-87
2022/06/14 04:45:56;;;;;;;;;;;20.50;71.50;;;19.77;66.59;96195.66;4052833;34;19904;-87
2022/06/14 04:48:30;;;;;;;;;;;20.40;71.20;;;19.80;66.62;96197.78;4074397;34;19933;-87
2022/06/14 04:51:02;;;;;;;;;;;20.50;71.40;;;19.80;66.00;96192.22;4052595;34;19912;-87
2022/06/14 04:53:36;;;;;;;;;;;20.50;71.20;;;19.85;66.21;96205.13;4074371;34;19904;-86
2022/06/14 04:56:08;;;;;;;;;;;20.50;71.00;;;19.86;66.20;96206.75;4052793;34;20152;-87
2022/06/14 04:58:42;;;;;;;;;;;20.60;71.00;;;19.88;66.12;96210.84;4074348;34;19905;-87
2022/06/14 05:01:15;;;;;;;;;;;20.60;70.90;;;19.91;65.93;96210.19;4052207;34;20066;-87
2022/06/14 05:03:48;;;;;;;;;;;20.60;70.80;;;19.92;65.83;96211.81;4074448;34;19904;-87
2022/06/14 05:06:20;;;;;;;;;;;20.60;70.80;;;19.95;66.04;96209.50;4097314;34;20044;-87
2022/06/14 05:08:51;;;;;;;;;;;20.70;70.80;;;19.97;65.91;96212.78;4074033;34;20039;-87
2022/06/14 05:11:21;;;;;;;;;;;20.70;71.50;;;19.98;65.93;96219.97;4073847;34;20097;-87
2022/06/14 05:13:55;;;;;;;;;;;20.70;70.60;;;20.00;65.79;96212.13;4084174;34;20234;-86
2022/06/14 05:16:28;;;;;;;;;;;20.70;70.50;;;20.03;65.98;96222.56;4078705;34;19911;-87
2022/06/14 05:19:03;;;;;;;;;;;20.80;70.50;;;20.04;65.52;96229.78;4100174;34;20108;-87
2022/06/14 05:21:35;;;;;;;;;;;20.80;70.40;;;20.05;65.45;96228.63;4100162;34;19904;-87
2022/06/14 05:24:04;;;;;;;;;;;20.80;70.30;;;20.06;65.65;96227.47;4078375;34;19904;-87
2022/06/14 05:26:44;;;;;;;;;;;20.80;70.20;;;20.09;65.56;96235.13;4100450;34;20123;-87
2022/06/14 05:29:19;;;;;;;;;;;20.70;70.20;;;20.10;65.75;96233.97;4078564;34;20108;-87
2022/06/14 05:31:50;;;;;;;;;;;20.80;70.20;;;20.11;65.58;96238.41;4078275;34;20223;-87
2022/06/14 05:34:23;;;;;;;;;;;20.80;70.20;;;20.12;65.21;96237.25;4078355;34;19904;-88
2022/06/14 05:36:54;;;;;;;;;;;20.80;70.20;;;20.11;65.64;96235.63;4100552;34;19904;-87
2022/06/14 05:39:27;;;;;;;;;;;20.80;70.20;;;20.12;65.38;96237.25;4100547;34;20101;-87
2022/06/14 05:41:58;;;;;;;;;;;20.80;70.00;;;20.14;65.30;96237.75;4077997;34;19912;-87
2022/06/14 05:44:31;;;;;;;;;;;20.80;70.00;;;20.15;65.42;96242.16;4078432;34;19980;-87
2022/06/14 05:47:03;;;;;;;;;;;20.90;70.10;;;20.15;65.38;96242.16;4100309;34;19904;-87
2022/06/14 05:49:34;;;;;;;;;;;20.90;70.00;;;20.16;65.46;96249.34;4100401;34;20009;-87
2022/06/14 05:52:07;;;;;;;;;;;20.90;70.00;;;20.16;65.37;96249.34;4078114;34;20147;-88
2022/06/14 05:54:38;;;;;;;;;;;20.90;70.10;;;20.16;65.29;96249.34;4123663;34;19904;-86
2022/06/14 05:57:12;;;;;;;;;;;20.90;70.00;;;20.16;65.23;96254.91;4078347;34;20096;-87
2022/06/14 05:59:46;;;;;;;;;;;20.90;70.10;;;20.18;65.53;96252.63;4100401;34;19952;-87
2022/06/14 06:02:20;;;;;;;;;;;20.90;70.20;;;20.19;65.36;96253.41;4100160;34;20165;-87
2022/06/14 06:04:58;;;;;;;;;;;20.90;70.00;;;20.20;65.35;96255.84;4078427;34;19904;-87
2022/06/14 06:07:32;;;;;;;;;;;20.90;70.10;;;20.21;65.57;96254.72;4100362;34;19975;-87
2022/06/14 06:10:05;;;;;;;;;;;20.90;70.10;;;20.22;65.29;96259.13;4099976;34;20172;-87
2022/06/14 06:12:37;;;;;;;;;;;20.90;69.90;;;20.21;65.38;96257.47;4104918;34;20281;-87
2022/06/14 06:15:13;;;;;;;;;;;20.90;70.00;;;20.20;65.49;96264.19;4100392;34;19892;-87
2022/06/14 06:17:45;;;;;;;;;;;20.90;70.10;;;20.18;65.56;96272.06;4078047;34;19904;-87
2022/06/14 06:20:21;;;;;;;;;;;20.90;70.10;;;20.17;65.87;96267.66;4077717;34;20128;-87
2022/06/14 06:22:59;;;;;;;;;;;20.90;70.30;;;20.15;65.73;96269.13;4078277;34;19911;-87
2022/06/14 06:25:30;;;;;;;;;;;20.90;70.40;;;20.14;65.62;96281.41;4100291;34;20133;-86
2022/06/14 06:32:16;;;;;;;;;;;20.80;70.50;;;20.08;66.03;96287.13;4095391;34;20052;-88
2022/06/14 06:34:45;;;;;;;;;;;20.80;70.70;;;20.07;65.94;96284.69;4080393;34;20148;-87
2022/06/14 06:37:16;;;;;;;;;;;20.80;70.80;;;20.06;65.98;96285.84;4102181;34;20137;-87
2022/06/14 06:39:48;;;;;;;;;;;20.80;70.80;;;20.06;66.10;96285.84;4080519;34;20177;-87
2022/06/14 06:42:22;;;;;;;;;;;20.80;70.90;;;20.09;66.22;96296.28;4080337;34;19953;-87
2022/06/14 06:44:56;;;;;;;;;;;20.80;71.00;;;20.10;66.08;96292.34;4080405;34;19980;-86
2022/06/14 06:47:30;;;;;;;;;;;20.80;70.80;;;20.12;65.71;96298.41;4102449;34;19904;-86
2022/06/14 06:50:21;;;;;;;;;;;20.80;70.70;;;20.13;65.61;96300.03;4101957;34;19911;-87
2022/06/14 06:52:58;;;;;;;;;;;20.80;70.60;;;20.16;65.91;96298.53;4102129;34;20172;-87
2022/06/14 06:55:42;;;;;;;;;;;20.80;70.60;;;20.16;65.89;96293.81;4080369;34;20193;-87
2022/06/14 06:58:19;;;;;;;;;;;20.80;70.50;;;20.15;65.75;96294.97;4080196;34;20135;-86
2022/06/14 07:00:48;;;;;;;;;;;20.80;70.50;;;20.18;66.01;96299.88;4101973;34;20017;-87
2022/06/14 07:03:23;;;;;;;;;;;20.80;70.50;;;20.20;65.52;96293.97;4080306;34;19904;-87
2022/06/14 07:06:18;;;;;;;;;;;;;;;;;;;;;
2022/06/14 07:08:55;;;;;;;;;;;20.90;70.50;;;20.27;65.42;96285.13;4102225;34;19904;-87
2022/06/14 07:11:26;;;;;;;;;;;21.00;70.30;;;20.30;65.36;96304.72;4101601;34;20474;-88
2022/06/14 07:13:57;;;;;;;;;;;21.00;70.20;;;20.30;65.41;96303.91;4102248;34;19904;-87
2022/06/14 07:20:04;;;;;;;;;;;21.00;70.30;;;20.28;65.62;96300.66;4066212;34;20042;-87
2022/06/14 07:22:38;;;;;;;;;;;21.00;70.30;;;20.24;66.28;96294.94;4053909;34;20024;-87
2022/06/14 07:25:09;;;;;;;;;;;21.00;70.40;;;20.23;65.56;96305.22;4053690;34;20242;-88
2022/06/14 07:27:41;;;;;;;;;;;20.90;70.50;;;20.21;65.75;96307.53;4075616;34;20147;-88
2022/06/14 07:30:13;;;;;;;;;;;20.90;70.50;;;20.21;65.84;96310.31;4074920;34;20310;-88
2022/06/14 07:32:46;;;;;;;;;;;20.90;70.60;;;20.20;65.91;96314.22;4075499;34;20065;-87
2022/06/14 07:35:16;;;;;;;;;;;20.90;70.60;;;20.19;65.87;96304.28;4053683;34;20399;-87
2022/06/14 07:37:49;;;;;;;;;;;20.90;70.60;;;20.21;65.94;96313.06;4075290;34;19912;-88
2022/06/14 07:40:20;;;;;;;;;;;20.90;70.70;;;20.23;65.71;96310.78;4074932;34;20456;-87
2022/06/14 07:42:55;;;;;;;;;;;20.90;70.60;;;20.26;65.53;96309.34;4074995;34;20024;-88
2022/06/14 07:45:26;;;;;;;;;;;20.90;70.50;;;20.31;65.77;96319.47;4053612;34;19904;-88
2022/06/14 07:47:56;;;;;;;;;;;21.00;70.40;;;20.34;65.38;96324.34;4075264;34;19904;-88
2022/06/14 07:50:31;;;;;;;;;;;21.00;70.30;;;20.39;65.24;96325.00;4074670;34;19912;-88
2022/06/14 07:53:03;;;;;;;;;;;21.00;70.10;;;20.41;65.20;96327.44;4075230;34;20124;-88
2022/06/14 07:55:35;;;;;;;;;;;21.10;70.20;;;20.43;65.22;96329.88;4053473;34;19905;-88
2022/06/14 07:58:14;;;;;;;;;;;21.10;70.10;;;20.46;65.17;96327.25;4097395;34;19912;-87
2022/06/14 08:01:15;;;;;;;;;;;21.10;70.00;;;20.48;65.17;96327.72;4052997;34;19904;-87
2022/06/14 08:03:55;;;;;;;;;;;21.10;70.00;;;20.51;65.09;96331.81;4032108;34;20002;-87
2022/06/14 08:06:30;;;;;;;;;;;21.20;69.80;;;20.53;64.50;96327.56;4053503;34;19911;-88
2022/06/14 08:09:08;;;;;;;;;;;21.20;69.70;;;20.54;64.91;96320.84;4075173;34;19912;-87
2022/06/14 08:11:41;;;;;;;;;;;21.20;69.60;;;20.53;64.75;96322.00;4052857;34;19905;-88
2022/06/14 08:14:14;;;;;;;;;;;21.20;69.50;;;20.53;64.61;96340.63;4075223;34;19904;-87
2022/06/14 08:16:43;;;;;;;;;;;21.20;69.40;;;20.50;65.00;96344.91;4075084;34;20308;-88
2022/06/14 08:19:15;;;;;;;;;;;21.20;69.40;;;20.49;64.81;96346.03;4053427;34;19911;-87
2022/06/14 08:21:50;;;;;;;;;;;21.20;69.70;;;20.49;65.23;96342.47;4052817;34;20081;-88
2022/06/14 08:24:24;;;;;;;;;;;21.20;69.70;;;20.47;64.98;96336.41;4074912;34;19924;-87
2022/06/14 08:26:56;;;;;;;;;;;21.20;69.80;;;20.46;65.32;96340.34;4053146;34;19911;-88
2022/06/14 08:29:27;;;;;;;;;;;21.10;69.80;;;20.45;65.11;96339.53;4074988;34;20153;-88
2022/06/14 08:31:58;;;;;;;;;;;21.10;69.90;;;20.43;65.43;96341.81;4052900;34;20100;-88
2022/06/14 08:34:33;;;;;;;;;;;21.10;69.90;;;20.44;65.33;96345.41;4096953;34;19905;-88
2022/06/14 08:37:07;;;;;;;;;;;21.10;70.00;;;20.44;65.31;96337.91;4053359;34;19966;-87
2022/06/14 08:39:40;;;;;;;;;;;21.10;69.90;;;20.43;65.11;96341.81;4074782;34;19904;-87
2022/06/14 08:42:21;;;;;;;;;;;21.10;69.90;;;20.43;65.18;96344.59;4052416;34;20120;-88
2022/06/14 08:44:57;;;;;;;;;;;21.10;69.90;;;20.42;65.11;96340.19;4074792;34;19905;-88
2022/06/14 08:48:14;;;;;;;;;;;21.10;70.00;;;20.41;65.20;96346.91;4052882;34;20003;-88
2022/06/14 08:51:15;;;;;;;;;;;21.10;70.00;;;20.39;65.40;96351.97;4051826;34;20198;-87
2022/06/14 08:54:11;;;;;;;;;;;21.10;70.10;;;20.39;65.56;96351.97;4052512;34;19911;-88
2022/06/14 08:57:12;;;;;;;;;;;21.10;70.20;;;20.39;65.65;96349.19;4074699;34;20163;-89
2022/06/14 09:00:11;;;;;;;;;;;21.10;70.20;;;20.40;65.39;96350.81;4075036;34;19957;-88
2022/06/14 09:03:49;;;;;;;;;;;21.10;70.10;;;20.40;65.17;96348.03;4053147;34;19912;-88
2022/06/14 09:06:48;;;;;;;;;;;21.10;70.00;;;20.39;65.31;96352.81;4047835;34;20101;-88
2022/06/14 09:10:03;;;;;;;;;;;21.10;70.10;;;20.40;65.36;96342.47;4052947;34;20050;-89
2022/06/14 09:12:57;;;;;;;;;;;21.10;70.20;;;20.40;65.34;96342.47;4059089;34;19920;-88
2022/06/14 09:16:05;;;;;;;;;;;21.10;70.10;;;20.42;65.29;96344.91;4052984;34;19904;-89
2022/06/14 09:18:42;;;;;;;;;;;21.10;70.00;;;20.41;65.29;96346.91;4092246;34;19981;-89
2022/06/14 09:21:16;;;;;;;;;;;21.10;70.00;;;20.43;65.35;96357.69;4077624;34;19908;-89
2022/06/14 09:23:51;;;;;;;;;;;21.10;70.00;;;20.42;65.25;96356.88;4072270;34;20148;-88
2022/06/14 09:27:09;;;;;;;;;;;21.10;70.00;;;20.42;65.47;96350.47;4074256;34;19996;-89
2022/06/14 09:30:14;;;;;;;;;;;21.10;70.00;;;20.43;65.21;96358.50;4074132;34;19987;-89
2022/06/14 09:33:30;;;;;;;;;;;21.10;70.00;;;20.42;65.60;96340.19;4052372;34;20121;-89
2022/06/14 09:36:54;;;;;;;;;;;21.10;70.00;;;20.42;65.38;96334.63;4073811;34;20124;-89
2022/06/14 09:40:02;;;;;;;;;;;21.10;70.00;;;20.41;65.32;96338.56;4093291;34;19911;-89
2022/06/14 09:42:49;;;;;;;;;;;21.10;70.00;;;20.41;65.33;96338.56;4090782;34;19963;-89
2022/06/14 09:45:47;;;;;;;;;;;21.10;70.00;;;20.40;65.50;96342.47;4078522;34;20394;-89
2022/06/14 09:48:27;;;;;;;;;;;21.10;70.00;;;20.39;65.39;96338.06;4100554;34;20290;-88
2022/06/14 09:51:38;;;;;;;;;;;21.10;70.10;;;20.37;65.33;96345.91;4078146;34;20348;-89
2022/06/14 09:55:09;;;;;;;;;;;21.10;70.10;;;20.36;65.82;96341.50;4078605;34;20252;-88
2022/06/14 09:58:18;;;;;;;;;;;21.10;70.20;;;20.37;65.23;96337.56;4100204;34;19977;-88
2022/06/14 10:00:51;;;;;;;;;;;21.10;70.20;;;20.35;65.57;96329.56;4047131;34;20361;-89
2022/06/14 10:04:22;;;;;;;;;;;21.10;70.20;;;20.35;65.52;96328.75;4078277;34;19904;-88
2022/06/14 10:07:53;;;;;;;;;;;21.00;70.10;;;20.33;65.48;96329.09;4015664;34;19949;-88
2022/06/14 10:11:10;;;;;;;;;;;21.00;70.10;;;20.33;65.56;96331.06;3930661;35;20243;-88
2022/06/14 10:14:43;;;;;;;;;;;21.10;70.30;;;20.32;65.39;96324.66;4122466;34;20072;-89
2022/06/14 10:17:50;;;;;;;;;;;21.00;70.10;;;20.32;65.56;96323.88;4078379;34;19904;-88
2022/06/14 10:20:53;;;;;;;;;;;21.00;70.20;;;20.33;65.61;96325.50;4077976;34;19904;-89
2022/06/14 10:23:45;;;;;;;;;;;21.00;70.20;;;20.32;65.67;96326.66;4100459;34;20243;-89
2022/06/14 10:34:28;;;;;;;;;;;21.00;70.30;;;20.30;65.56;96315.03;4058063;34;20398;-89
2022/06/14 10:37:21;;;;;;;;;;;21.00;70.30;;;20.28;65.64;96311.78;4100015;34;19955;-89
2022/06/14 10:40:28;;;;;;;;;;;21.00;70.30;;;20.29;65.43;96310.63;4078212;34;20228;-89
2022/06/14 10:43:02;;;;;;;;;;;21.00;70.30;;;20.29;65.33;96317.00;4078875;34;19904;-89
2022/06/14 10:45:39;;;;;;;;;;;21.00;70.30;;;20.29;65.84;96305.06;4078122;34;19904;-89
2022/06/14 10:49:10;;;;;;;;;;;21.00;70.30;;;20.27;65.77;96299.81;4100012;34;20135;-88
2022/06/14 10:52:38;;;;;;;;;;;21.00;70.30;;;20.28;65.67;96303.44;4066931;34;20109;-89
2022/06/14 10:55:36;;;;;;;;;;;21.00;70.30;;;20.27;65.77;96294.25;4065701;34;19974;-88
2022/06/14 10:59:03;;;;;;;;;;;21.00;71.20;;;20.26;65.56;96289.88;4073395;34;20129;-86
2022/06/14 11:01:49;;;;;;;;;;;21.00;70.30;;;20.27;65.33;96288.69;4073320;34;20134;-87
2022/06/14 11:04:26;;;;;;;;;;;21.00;70.30;;;20.28;65.85;96292.31;4051579;34;20591;-87
2022/06/14 11:07:35;;;;;;;;;;;21.00;70.30;;;20.27;65.61;96285.13;4051626;34;20138;-88
2022/06/14 11:10:41;;;;;;;;;;;21.00;70.30;;;20.26;65.64;96284.31;4072964;34;20083;-87
2022/06/14 11:13:45;;;;;;;;;;;21.00;70.40;;;20.26;65.75;96280.69;4020601;34;19905;-87
2022/06/14 11:16:29;;;;;;;;;;;21.00;70.30;;;20.26;65.71;96280.69;4073640;34;19904;-87
2022/06/14 11:19:35;;;;;;;;;;;21.00;70.30;;;20.25;65.64;96279.91;4054194;34;19904;-87
2022/06/14 11:22:37;;;;;;;;;;;21.00;70.30;;;20.27;65.76;96276.78;4053356;34;19927;-87
2022/06/14 11:25:20;;;;;;;;;;;21.00;70.30;;;20.26;65.42;96275.97;4083915;34;20220;-88
2022/06/14 11:28:50;;;;;;;;;;;;;;;;;;;;;
2022/06/14 11:32:50;;;;;;;;;;;21.00;70.20;;;20.23;65.70;96271.88;4101476;34;19904;-87
2022/06/14 11:35:43;;;;;;;;;;;21.00;70.30;;;20.27;65.85;96274.00;4060073;34;20146;-88
2022/06/14 11:39:22;;;;;;;;;;;;;;;;;;;;;
2022/06/14 11:42:24;;;;;;;;;;;21.00;70.30;;;20.26;65.58;96269.59;3965127;34;20105;-88
2022/06/14 11:45:15;;;;;;;;;;;21.00;70.20;;;20.27;65.60;96271.22;4075957;34;23078;-88
2022/06/14 11:48:04;;;;;;;;;;;21.00;70.20;;;20.28;65.56;96272.84;4053546;34;19953;-88
2022/06/14 11:50:56;;;;;;;;;;;21.00;70.20;;;20.28;65.53;96267.28;4053176;34;19905;-88
2022/06/14 11:54:40;;;;;;;;;;;21.00;70.20;;;20.25;65.39;96268.78;4054237;34;19937;-87
2022/06/14 11:57:25;;;;;;;;;;;21.00;70.20;;;20.27;65.40;96271.22;4075368;34;20080;-87
2022/06/14 12:00:26;;;;;;;;;;;21.00;70.40;;;20.26;65.46;96267.63;4052909;34;20170;-87
2022/06/14 12:03:36;;;;;;;;;;;21.00;70.20;;;20.27;65.64;96274.00;4082522;34;19905;-88
2022/06/14 12:06:37;;;;;;;;;;;21.00;70.20;;;20.25;65.49;96271.56;4097151;34;19905;-88
2022/06/14 12:09:30;;;;;;;;;;;21.00;70.20;;;20.24;65.49;96273.50;4053644;34;20368;-87
2022/06/14 12:12:01;;;;;;;;;;;20.90;70.30;;;20.25;65.63;96274.34;4073812;34;19905;-86
2022/06/14 12:15:07;;;;;;;;;;;20.90;70.30;;;20.25;65.59;96268.78;4075000;34;19912;-88
2022/06/14 12:17:37;;;;;;;;;;;21.00;70.30;;;20.26;65.72;96264.03;4048051;34;20028;-88
2022/06/14 12:20:09;;;;;;;;;;;20.90;70.30;;;20.26;65.75;96264.84;4052945;34;19904;-88
2022/06/14 12:23:06;;;;;;;;;;;20.90;70.30;;;20.27;65.61;96265.66;4053413;34;20225;-89
2022/06/14 12:28:39;;;;;;;;;;;21.00;70.20;;;20.27;65.45;96271.22;4053154;34;20088;-89
2022/06/14 12:31:27;;;;;;;;;;;21.00;70.20;;;20.27;65.69;96263.69;4074540;34;20090;-87
2022/06/14 12:33:59;;;;;;;;;;;21.00;70.20;;;20.27;65.68;96268.44;4074882;34;19905;-87
2022/06/14 12:36:34;;;;;;;;;;;21.00;70.20;;;20.28;65.50;96275.63;4097848;34;20119;-86
2022/06/14 12:39:07;;;;;;;;;;;21.00;70.20;;;20.26;65.57;96264.03;4074729;34;19911;-87
2022/06/14 12:41:38;;;;;;;;;;;21.00;70.20;;;20.26;65.63;96266.81;4052631;34;19904;-89
2022/06/14 12:44:24;;;;;;;;;;;21.00;70.20;;;20.27;65.53;96268.44;4074675;34;19905;-89
2022/06/14 12:46:54;;;;;;;;;;;21.00;70.10;;;20.28;65.53;96261.72;4053040;34;19923;-89
2022/06/14 12:49:25;;;;;;;;;;;21.00;70.10;;;20.28;65.34;96261.72;4074605;34;19912;-89
2022/06/14 12:51:56;;;;;;;;;;;21.00;70.00;;;20.28;65.52;96256.97;4052366;34;20139;-88